Time;durP1;ratioP1;P1;durP2;ratioP2;P2;SDS_P1;SDS_P2;PMS_P1;PMS_P2;Temp;Humidity;BMP_temperature;BMP_pressure;BME280_temperature;BME280_humidity;BME280_pressure;Samples;Min_cycle;Max_cycle;Signal;HPM_P1;HPM_P2
2023/04/23 00:01:25;;;;;;;10.15;3.70;;;;;;;15.42;100.00;100920.78;2075443;28;20402;-73
2023/04/23 00:02:52;;;;;;;11.48;4.13;;;;;;;15.41;100.00;100924.31;2072201;28;20057;-72
2023/04/23 00:04:17;;;;;;;10.23;3.83;;;;;;;15.41;100.00;100921.66;2070377;28;20157;-73
2023/04/23 00:05:43;;;;;;;10.88;3.47;;;;;;;15.40;100.00;100928.75;2064579;28;20446;-72
2023/04/23 00:07:07;;;;;;;13.30;4.47;;;;;;;15.39;100.00;100921.66;2076083;28;20053;-73
2023/04/23 00:08:30;;;;;;;13.65;4.40;;;;;;;15.38;100.00;100921.66;2069032;28;20081;-73
2023/04/23 00:09:57;;;;;;;12.73;4.00;;;;;;;15.38;100.00;100924.31;2081264;28;20073;-73
2023/04/23 00:11:18;;;;;;;12.05;3.75;;;;;;;15.39;100.00;100924.31;2086681;28;20044;-73
2023/04/23 00:12:47;;;;;;;13.15;4.18;;;;;;;15.40;100.00;100927.84;2088684;28;20124;-73
2023/04/23 00:14:10;;;;;;;11.20;4.28;;;;;;;15.39;100.00;100926.97;2085550;28;20056;-73
2023/04/23 00:15:33;;;;;;;11.60;4.03;;;;;;;15.39;100.00;100926.97;2077929;28;20049;-73
2023/04/23 00:16:55;;;;;;;13.45;4.30;;;;;;;15.44;100.00;100932.28;2083534;28;20388;-73
2023/04/23 00:18:18;;;;;;;11.70;4.40;;;;;;;15.50;100.00;100935.81;2085705;28;20048;-73
2023/04/23 00:19:41;;;;;;;13.63;4.70;;;;;;;15.57;100.00;100934.06;2077865;28;20049;-73
2023/04/23 00:21:05;;;;;;;12.65;4.28;;;;;;;15.66;100.00;100936.72;2083492;28;20045;-73
2023/04/23 00:22:26;;;;;;;11.82;4.43;;;;;;;15.74;100.00;100937.59;2077853;28;20144;-73
2023/04/23 00:23:48;;;;;;;13.00;5.25;;;;;;;15.83;100.00;100940.19;2069578;28;20050;-73
2023/04/23 00:25:10;;;;;;;15.23;4.80;;;;;;;15.87;100.00;100939.31;2069583;28;20557;-73
2023/04/23 00:26:32;;;;;;;10.35;4.78;;;;;;;15.91;100.00;100942.84;2070025;28;20116;-73
2023/04/23 00:27:54;;;;;;;13.48;4.97;;;;;;;15.95;100.00;100933.94;2075727;28;20332;-73
2023/04/23 00:29:16;;;;;;;10.32;4.20;;;;;;;15.98;100.00;100939.28;2076800;28;20060;-73
2023/04/23 00:30:37;;;;;;;14.30;5.15;;;;;;;16.00;100.00;100932.19;2068917;28;20080;-73
2023/04/23 00:32:00;;;;;;;16.58;5.53;;;;;;;16.02;100.00;100937.47;2074763;28;20456;-73
2023/04/23 00:33:21;;;;;;;12.90;4.57;;;;;;;16.06;100.00;100941.91;2082987;28;20045;-73
2023/04/23 00:34:47;;;;;;;14.00;5.30;;;;;;;16.09;100.00;100942.78;2071744;28;20140;-73
2023/04/23 00:36:11;;;;;;;14.50;5.05;;;;;;;16.12;100.00;100934.78;2066167;28;20594;-73
2023/04/23 00:37:32;;;;;;;13.13;5.80;;;;;;;16.18;100.00;100936.53;2070774;28;20571;-73
2023/04/23 00:38:54;;;;;;;14.10;4.72;;;;;;;16.20;100.00;100932.97;2069019;28;20046;-73
2023/04/23 00:40:17;;;;;;;12.52;5.15;;;;;;;16.22;100.00;100938.28;2077145;28;20057;-73
2023/04/23 00:41:40;;;;;;;13.43;4.75;;;;;;;16.25;100.00;100932.94;2072015;28;20433;-73
2023/04/23 00:43:02;;;;;;;12.93;4.72;;;;;;;16.29;100.00;100930.25;2083144;28;20627;-73
2023/04/23 00:44:24;;;;;;;7.38;3.85;;;;;;;16.32;100.00;100929.34;2080346;28;20037;-73
2023/04/23 00:45:47;;;;;;;11.93;5.00;;;;;;;16.32;100.00;100924.03;2068770;28;20092;-73
2023/04/23 00:47:11;;;;;;;14.13;4.65;;;;;;;16.28;100.00;100927.59;2061685;28;20045;-74
2023/04/23 00:48:33;;;;;;;11.52;5.15;;;;;;;16.24;100.00;100925.84;2072852;28;20042;-73
2023/04/23 00:49:57;;;;;;;13.10;5.55;;;;;;;16.21;100.00;100936.53;2066666;28;20081;-73
2023/04/23 00:51:22;;;;;;;12.85;4.80;;;;;;;16.11;100.00;100927.69;2079306;28;20052;-74
2023/04/23 00:52:43;;;;;;;12.10;5.05;;;;;;;15.99;100.00;100927.72;2077763;28;20038;-73
2023/04/23 00:54:06;;;;;;;13.38;4.95;;;;;;;15.98;100.00;100927.72;2070831;28;20050;-73
2023/04/23 00:55:28;;;;;;;13.98;4.72;;;;;;;15.98;100.00;100928.63;2061135;28;20038;-73
2023/04/23 00:56:49;;;;;;;14.00;4.75;;;;;;;15.98;100.00;100927.72;2066459;28;20050;-73
2023/04/23 00:58:12;;;;;;;12.85;5.05;;;;;;;15.99;100.00;100937.50;2072337;28;20060;-73
2023/04/23 00:59:35;;;;;;;10.63;5.22;;;;;;;15.99;100.00;100934.84;2076648;28;20042;-74
2023/04/23 01:00:58;;;;;;;14.40;5.40;;;;;;;16.00;100.00;100932.19;2075690;28;20045;-73
2023/04/23 01:02:20;;;;;;;10.48;4.40;;;;;;;16.02;100.00;100929.47;2069060;28;20053;-73
2023/04/23 01:03:42;;;;;;;;;;;;;;;16.00;100.00;100929.50;2073475;28;20556;-73
2023/04/23 01:05:07;;;;;;;13.05;4.60;;;;;;;16.00;100.00;100925.97;2085143;28;19920;-73
2023/04/23 01:06:31;;;;;;;14.98;4.85;;;;;;;16.03;100.00;100923.28;2078320;28;20433;-73
2023/04/23 01:07:53;;;;;;;15.90;5.13;;;;;;;16.08;100.00;100929.47;2069358;28;20038;-73
2023/04/23 01:09:16;;;;;;;;;;;;;;;16.08;100.00;100932.16;2072746;28;20045;-73
2023/04/23 01:10:38;;;;;;;13.45;4.32;;;;;;;16.07;100.00;100925.94;2068811;28;20012;-73
2023/04/23 01:12:02;;;;;;;12.73;5.22;;;;;;;16.07;100.00;100928.59;2069803;28;20042;-73
2023/04/23 01:13:28;;;;;;;9.68;4.60;;;;;;;16.08;100.00;100918.84;2079362;28;20073;-73
2023/04/23 01:14:50;;;;;;;11.65;5.05;;;;;;;16.08;100.00;100926.81;2067037;28;20048;-73
2023/04/23 01:16:12;;;;;;;15.88;4.97;;;;;;;16.10;100.00;100925.91;2074056;28;20045;-73
2023/04/23 01:17:33;;;;;;;14.40;4.88;;;;;;;16.14;100.00;100929.47;2076555;28;20045;-73
2023/04/23 01:18:57;;;;;;;12.15;5.15;;;;;;;16.16;100.00;100925.88;2076088;28;20056;-73
2023/04/23 01:20:20;;;;;;;9.75;4.97;;;;;;;16.20;100.00;100930.31;2069422;28;20038;-73
2023/04/23 01:21:43;;;;;;;13.48;4.97;;;;;;;16.22;100.00;100927.63;2077366;28;20060;-73
2023/04/23 01:23:07;;;;;;;12.60;5.10;;;;;;;16.24;100.00;100931.16;2066054;28;20046;-72
2023/04/23 01:24:30;;;;;;;9.02;4.70;;;;;;;16.24;100.00;100936.50;2074748;28;20050;-73
2023/04/23 01:25:53;;;;;;;12.40;5.18;;;;;;;16.24;100.00;100929.41;2077360;28;20076;-73
2023/04/23 01:27:15;;;;;;;14.18;5.15;;;;;;;16.25;100.00;100932.94;2077369;28;20038;-73
2023/04/23 01:28:37;;;;;;;;;;;;;;;16.25;100.00;100935.59;2078352;28;20118;-73
2023/04/23 01:29:59;;;;;;;11.45;5.32;;;;;;;16.23;100.00;100932.94;2074723;28;19928;-73
2023/04/23 01:31:21;;;;;;;14.30;5.13;;;;;;;16.26;100.00;100942.72;2066345;28;20042;-73
2023/04/23 01:32:44;;;;;;;;;;;;;;;16.23;100.00;100929.41;2071031;28;20447;-73
2023/04/23 01:34:07;;;;;;;18.63;6.50;;;;;;;16.23;100.00;100930.28;2078949;28;19990;-73
2023/04/23 01:35:30;;;;;;;10.60;5.82;;;;;;;16.25;100.00;100933.84;2063512;28;20042;-73
2023/04/23 01:36:53;;;;;;;13.85;5.97;;;;;;;16.26;100.00;100932.06;2074203;28;20045;-73
2023/04/23 01:38:18;;;;;;;13.05;5.95;;;;;;;16.26;100.00;100932.94;2073317;28;20072;-73
2023/04/23 01:39:39;;;;;;;13.48;6.88;;;;;;;16.25;100.00;100930.28;2077361;28;20042;-73
2023/04/23 01:41:01;;;;;;;12.68;6.28;;;;;;;16.24;100.00;100928.50;2071703;28;20054;-73
2023/04/23 01:42:23;;;;;;;12.48;6.80;;;;;;;16.23;100.00;100929.41;2073392;28;20056;-73
2023/04/23 01:43:47;;;;;;;12.35;7.03;;;;;;;16.21;100.00;100921.41;2067611;28;20046;-73
2023/04/23 01:45:09;;;;;;;15.00;6.45;;;;;;;16.19;100.00;100924.97;2073544;28;20058;-73
2023/04/23 01:46:32;;;;;;;;;;;;;;;16.14;100.00;100922.34;2079132;28;20410;-73
2023/04/23 01:47:54;;;;;;;14.63;6.70;;;;;;;16.12;100.00;100920.56;2078030;28;19921;-73
2023/04/23 01:49:16;;;;;;;11.73;6.35;;;;;;;16.12;100.00;100918.81;2068405;28;20062;-73
2023/04/23 01:50:39;;;;;;;14.23;6.80;;;;;;;16.09;100.00;100913.47;2072423;28;20060;-73
2023/04/23 01:52:00;;;;;;;15.02;7.18;;;;;;;16.09;100.00;100923.25;2069215;28;20069;-73
2023/04/23 01:53:24;;;;;;;16.38;7.82;;;;;;;16.06;100.00;100915.28;2074515;28;20060;-73
2023/04/23 01:54:47;;;;;;;14.88;8.60;;;;;;;16.04;100.00;100920.59;2078205;28;20483;-73
2023/04/23 01:56:10;;;;;;;16.17;8.50;;;;;;;16.03;100.00;100925.94;2070667;28;20615;-73
2023/04/23 01:57:32;;;;;;;13.73;8.75;;;;;;;16.01;100.00;100922.41;2070793;28;20153;-72
2023/04/23 01:58:54;;;;;;;15.10;9.48;;;;;;;15.97;100.00;100921.53;2070518;28;20053;-73
2023/04/23 02:00:16;;;;;;;16.85;9.02;;;;;;;15.97;100.00;100920.63;2084210;28;20071;-73
2023/04/23 02:01:43;;;;;;;;;;;;;;;15.92;100.00;100924.22;2073756;28;20082;-73
2023/04/23 02:03:05;;;;;;;15.80;8.55;;;;;;;15.90;100.00;100925.97;2077743;28;19953;-73
2023/04/23 02:04:28;;;;;;;14.88;9.45;;;;;;;15.91;100.00;100933.09;2073001;28;20042;-73
2023/04/23 02:05:54;;;;;;;18.27;11.00;;;;;;;15.93;100.00;100928.66;2079065;28;20061;-73
2023/04/23 02:07:15;;;;;;;17.05;10.77;;;;;;;15.94;100.00;100929.53;2064944;28;20046;-73
2023/04/23 02:08:39;;;;;;;14.63;10.90;;;;;;;15.96;100.00;100927.72;2067768;28;20469;-73
2023/04/23 02:10:01;;;;;;;19.02;11.45;;;;;;;15.97;100.00;100925.97;2062663;28;20566;-73
2023/04/23 02:11:25;;;;;;;18.33;11.65;;;;;;;15.98;100.00;100923.28;2067703;28;20525;-73
2023/04/23 02:12:48;;;;;;;18.45;10.88;;;;;;;15.98;100.00;100927.72;2065194;28;20081;-73
2023/04/23 02:14:10;;;;;;;16.98;11.93;;;;;;;15.99;100.00;100922.41;2060335;28;20062;-73
2023/04/23 02:15:32;;;;;;;16.00;11.10;;;;;;;15.98;100.00;100923.28;2077933;28;20118;-72
2023/04/23 02:16:55;;;;;;;16.58;12.23;;;;;;;15.98;100.00;100935.72;2078667;28;20152;-73
2023/04/23 02:18:18;;;;;;;17.85;10.80;;;;;;;15.95;100.00;100929.50;2076385;28;20049;-73
2023/04/23 02:19:39;;;;;;;17.88;10.20;;;;;;;15.95;100.00;100934.84;2084272;28;20065;-73
2023/04/23 02:21:02;;;;;;;18.48;10.20;;;;;;;15.94;100.00;100926.88;2086433;28;20096;-73
2023/04/23 02:22:25;;;;;;;13.38;8.77;;;;;;;15.91;100.00;100922.44;2074519;28;20050;-73
2023/04/23 02:23:49;;;;;;;15.60;9.15;;;;;;;15.89;100.00;100923.31;2083399;28;20135;-73
2023/04/23 02:25:14;;;;;;;16.10;8.88;;;;;;;15.85;100.00;100922.47;2078698;28;20056;-73
2023/04/23 02:26:37;;;;;;;12.63;8.27;;;;;;;15.82;100.00;100925.13;2087327;28;20390;-73
2023/04/23 02:28:00;;;;;;;17.13;8.90;;;;;;;15.81;100.00;100931.34;2078494;28;20057;-73
2023/04/23 02:29:22;;;;;;;16.42;9.30;;;;;;;15.79;100.00;100929.56;2071765;28;20522;-73
2023/04/23 02:30:46;;;;;;;17.27;9.85;;;;;;;15.77;100.00;100928.69;2070649;28;20046;-73
2023/04/23 02:32:10;;;;;;;16.73;9.25;;;;;;;15.77;100.00;100929.56;2080880;28;20099;-73
2023/04/23 02:33:31;;;;;;;13.00;8.55;;;;;;;15.78;100.00;100926.03;2082429;28;20050;-73
2023/04/23 02:34:54;;;;;;;15.52;8.70;;;;;;;15.76;100.00;100938.44;2079214;28;20076;-72
2023/04/23 02:36:16;;;;;;;10.57;7.15;;;;;;;15.74;100.00;100940.25;2078076;28;20092;-73
2023/04/23 02:37:39;;;;;;;11.23;7.03;;;;;;;15.72;100.00;100944.69;2070316;28;20614;-73
2023/04/23 02:39:03;;;;;;;13.02;7.22;;;;;;;15.72;100.00;100935.81;2076027;28;20498;-73
2023/04/23 02:40:26;;;;;;;12.32;7.32;;;;;;;15.73;100.00;100935.81;2078693;28;20046;-73
2023/04/23 02:41:47;;;;;;;12.65;7.57;;;;;;;15.76;100.00;100929.56;2069079;28;20053;-73
2023/04/23 02:43:09;;;;;;;12.35;7.50;;;;;;;15.78;100.00;100934.00;2066843;28;20204;-73
2023/04/23 02:44:31;;;;;;;9.55;6.85;;;;;;;15.78;100.00;100936.69;2072582;28;20046;-73
2023/04/23 02:45:53;;;;;;;11.48;6.47;;;;;;;15.78;100.00;100938.44;2073324;28;20145;-73
2023/04/23 02:47:14;;;;;;;11.32;6.45;;;;;;;15.78;100.00;100931.34;2078560;28;20399;-73
2023/04/23 02:48:38;;;;;;;10.98;6.57;;;;;;;15.80;100.00;100940.22;2067287;28;20046;-73
2023/04/23 02:50:02;;;;;;;8.32;5.50;;;;;;;15.82;100.00;100943.75;2072774;28;20095;-73
2023/04/23 02:51:25;;;;;;;11.57;6.30;;;;;;;15.84;100.00;100928.66;2070445;28;20050;-73
2023/04/23 02:52:48;;;;;;;11.30;5.95;;;;;;;15.85;100.00;100933.09;2077355;28;20061;-73
2023/04/23 02:54:11;;;;;;;10.18;6.28;;;;;;;15.85;100.00;100932.22;2070799;28;20441;-73
2023/04/23 02:55:34;;;;;;;11.38;7.25;;;;;;;15.83;100.00;100926.91;2074305;28;20046;-73
2023/04/23 02:56:56;;;;;;;12.50;7.95;;;;;;;15.83;100.00;100920.69;2080854;28;20037;-72
2023/04/23 02:58:17;;;;;;;15.75;7.40;;;;;;;15.81;100.00;100926.03;2073030;28;20073;-73
2023/04/23 02:59:44;;;;;;;12.30;7.82;;;;;;;15.78;100.00;100926.03;2077823;28;20056;-73
2023/04/23 03:01:07;;;;;;;11.25;7.50;;;;;;;15.75;100.00;100928.69;2064366;28;20074;-73
2023/04/23 03:02:30;;;;;;;11.25;7.25;;;;;;;15.74;100.00;100931.38;2069989;28;20567;-73
2023/04/23 03:03:51;;;;;;;12.48;7.40;;;;;;;15.71;100.00;100929.59;2070534;28;20060;-72
2023/04/23 03:05:14;;;;;;;11.55;6.75;;;;;;;15.71;100.00;100931.38;2080716;28;20057;-73
2023/04/23 03:06:36;;;;;;;10.25;6.55;;;;;;;15.69;100.00;100926.03;2068812;28;20042;-72
2023/04/23 03:07:59;;;;;;;12.77;6.68;;;;;;;15.68;100.00;100926.97;2077265;28;20057;-73
2023/04/23 03:09:22;;;;;;;9.68;6.88;;;;;;;15.68;100.00;100931.41;2077988;28;20053;-74
2023/04/23 03:10:44;;;;;;;11.48;6.45;;;;;;;15.67;100.00;100940.25;2077595;28;20041;-74
2023/04/23 03:12:07;;;;;;;10.75;7.55;;;;;;;15.65;100.00;100929.63;2080269;28;20058;-74
2023/04/23 03:13:29;;;;;;;12.85;7.60;;;;;;;15.64;100.00;100938.47;2072570;28;20049;-74
2023/04/23 03:14:51;;;;;;;11.73;8.52;;;;;;;15.63;100.00;100928.72;2074727;28;20107;-73
2023/04/23 03:16:13;;;;;;;10.48;7.38;;;;;;;15.62;100.00;100926.09;2066819;28;20048;-74
2023/04/23 03:17:34;;;;;;;14.75;7.65;;;;;;;15.59;100.00;100921.66;2078137;28;20056;-73
2023/04/23 03:18:59;;;;;;;11.57;7.75;;;;;;;15.57;100.00;100930.50;2060879;28;20046;-74
2023/04/23 03:20:20;;;;;;;14.88;8.38;;;;;;;15.54;100.00;100931.44;2069823;28;20105;-73
2023/04/23 03:21:42;;;;;;;13.93;7.85;;;;;;;15.50;100.00;100922.50;2069743;28;20050;-73
2023/04/23 03:23:05;;;;;;;11.30;7.90;;;;;;;15.46;100.00;100939.38;2067261;28;20137;-73
2023/04/23 03:24:30;;;;;;;12.23;7.65;;;;;;;15.43;100.00;100922.53;2069796;28;20141;-74
2023/04/23 03:25:52;;;;;;;12.55;7.82;;;;;;;15.38;100.00;100921.66;2068925;28;20053;-73
2023/04/23 03:27:15;;;;;;;11.45;7.35;;;;;;;15.35;100.00;100924.31;2068526;28;20157;-73
2023/04/23 03:28:36;;;;;;;10.13;6.22;;;;;;;15.33;100.00;100929.66;2069902;28;20056;-73
2023/04/23 03:29:59;;;;;;;9.68;5.82;;;;;;;15.32;100.00;100926.97;2075123;28;20056;-73
2023/04/23 03:31:20;;;;;;;10.25;6.30;;;;;;;15.31;100.00;100927.84;2072504;28;20058;-73
2023/04/23 03:32:43;;;;;;;12.57;7.22;;;;;;;15.31;100.00;100934.06;2069302;28;20041;-73
2023/04/23 03:34:07;;;;;;;10.77;6.78;;;;;;;15.29;100.00;100937.63;2067616;28;20062;-73
2023/04/23 03:35:29;;;;;;;11.85;6.82;;;;;;;15.26;100.00;100945.59;2070048;28;20049;-73
2023/04/23 03:36:55;;;;;;;11.80;6.78;;;;;;;15.24;100.00;100947.38;2069563;28;20494;-72
2023/04/23 03:38:16;;;;;;;12.32;6.97;;;;;;;15.25;100.00;100949.16;2063951;28;20137;-72
2023/04/23 03:39:40;;;;;;;13.00;6.90;;;;;;;15.25;100.00;100941.16;2069279;28;20198;-73
2023/04/23 03:41:03;;;;;;;9.82;6.85;;;;;;;15.22;100.00;100939.41;2068337;28;20046;-72
2023/04/23 03:42:25;;;;;;;11.82;6.97;;;;;;;15.22;100.00;100949.16;2066246;28;20049;-73
2023/04/23 03:43:48;;;;;;;11.95;6.32;;;;;;;15.21;100.00;100958.91;2083173;28;20056;-73
2023/04/23 03:45:21;;;;;;;11.48;6.68;;;;;;;15.22;100.00;100949.16;2065982;28;20050;-72
2023/04/23 03:46:43;;;;;;;11.68;6.43;;;;;;;15.23;100.00;100953.59;2074110;28;20053;-73
2023/04/23 03:48:06;;;;;;;11.57;6.10;;;;;;;15.24;100.00;100950.91;2069069;28;20542;-73
2023/04/23 03:49:28;;;;;;;11.73;6.28;;;;;;;15.24;100.00;100947.38;2069516;28;20080;-73
2023/04/23 03:50:50;;;;;;;9.10;5.20;;;;;;;15.25;100.00;100959.78;2068212;28;20577;-72
2023/04/23 03:52:29;;;;;;;10.82;5.22;;;;;;;15.23;100.00;100954.47;2074012;28;20050;-72
2023/04/23 03:53:51;;;;;;;9.73;4.85;;;;;;;15.23;100.00;100957.13;2069542;28;20144;-72
2023/04/23 03:55:33;;;;;;;10.88;5.43;;;;;;;15.24;100.00;100960.66;2076589;28;20072;-73
2023/04/23 03:56:56;;;;;;;8.70;4.22;;;;;;;15.26;100.00;100965.09;2069989;28;20045;-73
2023/04/23 03:58:22;;;;;;;6.80;3.60;;;;;;;15.27;100.00;100961.56;2068239;28;20478;-73
2023/04/23 03:59:43;;;;;;;9.45;4.97;;;;;;;15.30;100.00;100955.34;2066968;28;20038;-72
2023/04/23 04:01:06;;;;;;;8.93;4.25;;;;;;;15.30;100.00;100952.69;2073571;28;20073;-72
2023/04/23 04:02:27;;;;;;;10.50;5.03;;;;;;;15.31;100.00;100960.66;2068987;28;20100;-72
2023/04/23 04:03:50;;;;;;;8.60;4.88;;;;;;;15.30;100.00;100961.56;2069265;28;20415;-72
2023/04/23 04:05:12;;;;;;;8.05;3.90;;;;;;;15.32;100.00;100972.19;2075599;28;20079;-73
2023/04/23 04:06:35;;;;;;;9.68;3.67;;;;;;;15.35;100.00;100972.22;2068019;28;20088;-72
2023/04/23 04:07:57;;;;;;;6.90;4.32;;;;;;;15.38;100.00;100969.53;2075210;28;20148;-73
2023/04/23 04:09:21;;;;;;;8.95;4.57;;;;;;;15.43;100.00;100965.97;2077928;28;20050;-73
2023/04/23 04:10:44;;;;;;;10.88;4.72;;;;;;;15.47;100.00;100972.19;2065367;28;20485;-73
2023/04/23 04:12:07;;;;;;;8.52;4.47;;;;;;;15.48;100.00;100966.88;2068442;28;20137;-72
2023/04/23 04:13:30;;;;;;;5.53;3.58;;;;;;;15.48;100.00;100973.97;2069731;28;20054;-72
2023/04/23 04:14:51;;;;;;;10.73;5.30;;;;;;;15.45;100.00;100974.84;2075559;28;20046;-72
2023/04/23 04:16:14;;;;;;;8.50;4.78;;;;;;;15.45;100.00;100968.63;2077004;28;20057;-73
2023/04/23 04:17:36;;;;;;;8.85;4.53;;;;;;;15.47;100.00;100966.88;2077216;28;20041;-72
2023/04/23 04:18:57;;;;;;;7.88;4.43;;;;;;;15.51;100.00;100971.28;2077250;28;20045;-72
2023/04/23 04:20:20;;;;;;;13.30;3.95;;;;;;;15.56;100.00;100982.00;2061140;28;20046;-72
2023/04/23 04:21:41;;;;;;;8.25;3.90;;;;;;;15.58;100.00;100972.19;2079278;28;20045;-72
2023/04/23 04:23:04;;;;;;;6.72;3.70;;;;;;;15.60;100.00;100966.00;2075112;28;20045;-73
2023/04/23 04:24:26;;;;;;;7.40;3.20;;;;;;;15.65;100.00;100977.53;2074788;28;20468;-73
2023/04/23 04:25:50;;;;;;;6.82;3.47;;;;;;;15.72;100.00;100971.31;2069686;28;20057;-73
2023/04/23 04:27:11;;;;;;;7.90;3.55;;;;;;;15.82;100.00;100967.72;2074172;28;20064;-72
2023/04/23 04:28:36;;;;;;;7.15;3.22;;;;;;;15.90;100.00;100973.03;2077557;28;20049;-73
2023/04/23 04:30:00;;;;;;;6.40;3.15;;;;;;;16.00;100.00;100984.53;2077227;28;20053;-72
2023/04/23 04:31:22;;;;;;;6.45;3.50;;;;;;;16.10;100.00;100984.50;2078574;28;20049;-73
2023/04/23 04:32:45;;;;;;;7.47;3.13;;;;;;;16.20;100.00;100991.59;2076779;28;20150;-73
2023/04/23 04:34:09;;;;;;;;;;;;;;;16.25;100.00;100986.22;2076833;28;20137;-72
2023/04/23 04:35:31;;;;;;;7.38;3.75;;;;;;;16.33;100.00;100990.63;2085580;28;20566;-72
2023/04/23 04:36:54;;;;;;;5.85;3.55;;;;;;;16.50;100.00;100987.88;2077580;28;20144;-72
2023/04/23 04:38:15;;;;;;;9.48;3.20;;;;;;;16.64;100.00;100988.72;2077260;28;20145;-73
2023/04/23 04:39:38;;;;;;;6.65;3.00;;;;;;;16.79;100.00;100984.22;2069149;28;20048;-72
2023/04/23 04:41:01;;;;;;;7.63;3.38;;;;;;;16.93;100.00;100982.34;2074755;28;20621;-73
2023/04/23 04:42:24;;;;;;;7.82;3.05;;;;;;;17.07;100.00;100988.44;2077828;28;20124;-73
2023/04/23 04:43:47;;;;;;;7.75;3.38;;;;;;;17.19;100.00;100983.03;2077584;28;20076;-73
2023/04/23 04:45:10;;;;;;;7.25;3.38;;;;;;;17.34;100.00;100984.66;2071461;28;20041;-73
2023/04/23 04:46:32;;;;;;;6.00;2.90;;;;;;;17.47;100.00;100981.00;2083495;28;20045;-73
2023/04/23 04:47:55;;;;;;;5.10;2.50;;;;;;;17.58;100.00;100989.81;2074213;28;20084;-72
2023/04/23 04:49:18;;;;;;;4.30;2.72;;;;;;;17.71;100.00;100987.94;2077576;28;20041;-73
2023/04/23 04:50:40;;;;;;;4.75;2.33;;;;;;;17.85;100.00;100994.88;2072016;28;20503;-73
2023/04/23 04:52:02;;;;;;;4.75;2.10;;;;;;;17.99;100.00;100992.06;2069159;28;20434;-73
2023/04/23 04:53:24;;;;;;;5.65;2.53;;;;;;;18.15;100.00;100992.78;2069188;28;20518;-73
2023/04/23 04:54:46;;;;;;;5.32;2.45;;;;;;;18.29;100.00;100982.81;2070247;28;20042;-73
2023/04/23 04:56:09;;;;;;;6.72;2.72;;;;;;;18.47;100.00;100984.38;2085527;28;20155;-73
2023/04/23 04:57:31;;;;;;;4.03;2.20;;;;;;;18.64;100.00;100998.44;2079975;28;20890;-73
2023/04/23 04:58:52;;;;;;;4.50;2.20;;;;;;;18.81;100.00;100995.53;2085623;28;20052;-73
2023/04/23 05:00:23;;;;;;;5.68;1.95;;;;;;;18.99;100.00;100993.47;2079788;28;20063;-73
2023/04/23 05:01:46;;;;;;;5.90;2.35;;;;;;;19.14;100.00;100988.78;2079915;28;20128;-73
2023/04/23 05:03:09;;;;;;;5.50;2.13;;;;;;;19.23;100.00;100989.50;2077603;28;20053;-73
2023/04/23 05:04:31;;;;;;;9.82;2.63;;;;;;;19.25;100.00;100990.38;2079917;28;20060;-73
2023/04/23 05:05:55;;;;;;;4.55;2.42;;;;;;;19.21;100.00;100988.66;2071156;28;20058;-73
2023/04/23 05:07:17;;;;;;;7.80;2.20;;;;;;;19.22;100.00;100998.47;2066393;28;20048;-73
2023/04/23 05:08:38;;;;;;;6.82;3.08;;;;;;;19.22;100.00;101005.59;2078043;28;20132;-72
2023/04/23 05:10:01;;;;;;;5.15;2.65;;;;;;;19.21;100.00;101003.84;2082480;28;20124;-73
2023/04/23 05:11:25;;;;;;;6.53;2.65;;;;;;;19.16;100.00;101000.34;2070750;28;20050;-73
2023/04/23 05:12:47;;;;;;;4.88;2.30;;;;;;;19.11;100.00;100995.94;2064621;28;20045;-72
2023/04/23 05:14:08;;;;;;;5.63;2.65;;;;;;;19.07;100.00;101004.06;2074421;28;20053;-73
2023/04/23 05:15:31;;;;;;;5.15;3.00;;;;;;;19.02;100.00;101011.28;2075108;28;20052;-73
2023/04/23 05:16:53;;;;;;;5.05;2.90;;;;;;;18.99;100.00;101009.50;2074932;28;20425;-75
2023/04/23 05:18:16;;;;;;;4.10;2.80;;;;;;;18.94;100.00;101007.81;2078264;28;20045;-73
2023/04/23 05:19:38;;;;;;;4.32;2.38;;;;;;;18.96;100.00;101006.91;2075864;28;20088;-73
2023/04/23 05:21:01;;;;;;;5.05;2.22;;;;;;;19.01;100.00;101012.16;2079267;28;20048;-73
2023/04/23 05:22:23;;;;;;;3.65;2.22;;;;;;;19.07;100.00;101007.63;2076625;28;20096;-73
2023/04/23 05:23:46;;;;;;;3.80;2.15;;;;;;;19.15;100.00;101011.97;2077425;28;20045;-73
2023/04/23 05:25:10;;;;;;;6.03;2.25;;;;;;;19.24;100.00;101011.81;2067664;28;20061;-73
2023/04/23 05:26:33;;;;;;;3.45;2.38;;;;;;;19.33;100.00;101017.91;2064506;28;20042;-73
2023/04/23 05:27:56;;;;;;;4.97;2.45;;;;;;;19.40;100.00;101018.69;2068180;28;20053;-73
2023/04/23 05:29:18;;;;;;;3.97;2.38;;;;;;;19.48;100.00;101019.50;2077920;28;20045;-72
2023/04/23 05:30:40;;;;;;;6.28;2.28;;;;;;;19.56;100.00;101022.03;2069694;28;20120;-73
2023/04/23 05:32:02;;;;;;;4.85;2.47;;;;;;;19.60;100.00;101016.59;2081456;28;20785;-73
2023/04/23 05:33:27;;;;;;;3.25;1.90;;;;;;;19.63;100.00;101027.25;2077869;28;20394;-73
2023/04/23 05:34:49;;;;;;;4.30;2.33;;;;;;;19.65;100.00;101025.44;2083981;28;20392;-73
2023/04/23 05:36:11;;;;;;;5.95;2.30;;;;;;;19.72;100.00;101028.88;2073123;28;20882;-74
2023/04/23 05:37:33;;;;;;;4.63;2.10;;;;;;;19.76;100.00;101026.13;2072984;28;20049;-73
2023/04/23 05:38:54;;;;;;;3.22;1.85;;;;;;;19.85;100.00;101023.28;2070880;28;20096;-73
2023/04/23 05:40:17;;;;;;;7.65;2.30;;;;;;;19.87;100.00;101025.94;2071055;28;20080;-73
2023/04/23 05:41:40;;;;;;;3.72;2.15;;;;;;;19.88;100.00;101027.72;2078298;28;20049;-73
2023/04/23 05:43:02;;;;;;;3.58;2.08;;;;;;;19.88;100.00;101033.97;2078998;28;20053;-73
2023/04/23 05:44:25;;;;;;;5.93;2.35;;;;;;;19.90;100.00;101026.75;2065354;28;20120;-73
2023/04/23 05:45:46;;;;;;;6.55;1.90;;;;;;;19.94;100.00;101032.97;2077054;28;20041;-73
2023/04/23 05:47:10;;;;;;;4.45;1.60;;;;;;;19.98;100.00;101033.78;2070557;28;20140;-74
2023/04/23 05:48:31;;;;;;;5.85;2.40;;;;;;;20.04;100.00;101033.66;2075766;28;20390;-73
2023/04/23 05:49:56;;;;;;;4.18;2.20;;;;;;;20.01;100.00;101023.00;2073260;28;20050;-73
2023/04/23 05:51:18;;;;;;;4.95;2.45;;;;;;;19.98;100.00;101029.28;2066075;28;20049;-73
2023/04/23 05:52:39;;;;;;;4.13;2.40;;;;;;;19.94;100.00;101029.38;2081180;28;20052;-73
2023/04/23 05:54:02;;;;;;;4.07;2.10;;;;;;;19.95;100.00;101033.84;2079286;28;20038;-73
2023/04/23 05:55:24;;;;;;;3.65;2.30;;;;;;;19.94;100.00;101032.06;2076713;28;20053;-73
2023/04/23 05:56:48;;;;;;;3.55;2.50;;;;;;;19.99;100.00;101033.75;2075904;28;20045;-72
2023/04/23 05:58:10;;;;;;;4.15;2.08;;;;;;;20.03;100.00;101034.56;2078341;28;20057;-73
2023/04/23 05:59:31;;;;;;;6.22;2.20;;;;;;;20.07;100.00;101029.13;2065976;28;20057;-73
2023/04/23 06:00:54;;;;;;;8.57;2.60;;;;;;;20.11;100.00;101038.88;2080067;28;20696;-73
2023/04/23 06:02:15;;;;;;;3.10;2.20;;;;;;;20.24;100.00;101042.19;2073044;28;20042;-74
2023/04/23 06:03:40;;;;;;;4.32;2.30;;;;;;;20.38;100.00;101039.28;2075948;28;20041;-73
2023/04/23 06:05:01;;;;;;;4.13;1.83;;;;;;;20.55;100.00;101037.13;2077832;28;20398;-73
2023/04/23 06:06:24;;;;;;;6.25;2.10;;;;;;;20.82;100.00;101041.00;2087010;28;20048;-73
2023/04/23 06:07:46;;;;;;;4.20;2.10;;;;;;;21.01;100.00;101039.69;2081285;28;20041;-73
2023/04/23 06:09:09;;;;;;;5.13;2.00;;;;;;;21.12;100.00;101040.34;2081069;28;20675;-73
2023/04/23 06:10:30;;;;;;;3.92;1.90;;;;;;;21.38;100.00;101042.44;2073067;28;20049;-73
2023/04/23 06:11:54;;;;;;;4.75;2.15;;;;;;;21.65;100.00;101043.56;2078675;28;20053;-73
2023/04/23 06:13:17;;;;;;;4.60;2.35;;;;;;;21.79;100.00;101038.72;2078772;28;20053;-73
2023/04/23 06:14:38;;;;;;;4.63;2.00;;;;;;;21.88;100.00;101033.09;2073079;28;20128;-73
2023/04/23 06:16:01;;;;;;;4.80;2.40;;;;;;;21.86;100.00;101040.28;2078590;28;20103;-73
2023/04/23 06:17:22;;;;;;;3.80;2.00;;;;;;;21.77;100.00;101046.81;2081173;28;20049;-74
2023/04/23 06:18:44;;;;;;;5.00;2.40;;;;;;;21.67;100.00;101049.75;2078448;28;20045;-73
2023/04/23 06:20:10;;;;;;;5.93;2.83;;;;;;;21.65;100.00;101052.50;2070269;28;20105;-73